sensor_id;sensor_type;location;lat;lon;timestamp;pressure;altitude;pressure_sealevel;temperature
43292;BMP280;28754;47.700;7.924;2024-01-16T00:00:25;90579.25;;;-2.10
43292;BMP280;28754;47.700;7.924;2024-01-16T00:03:12;90582.00;;;-2.18
43292;BMP280;28754;47.700;7.924;2024-01-16T00:05:58;90590.53;;;-2.25
43292;BMP280;28754;47.700;7.924;2024-01-16T00:08:46;90589.22;;;-2.34
43292;BMP280;28754;47.700;7.924;2024-01-16T00:11:33;90590.03;;;-2.40
43292;BMP280;28754;47.700;7.924;2024-01-16T00:14:19;90587.75;;;-2.41
43292;BMP280;28754;47.700;7.924;2024-01-16T00:17:06;90574.06;;;-2.45
43292;BMP280;28754;47.700;7.924;2024-01-16T00:19:53;90577.91;;;-2.43
43292;BMP280;28754;47.700;7.924;2024-01-16T00:22:39;90579.44;;;-2.42
43292;BMP280;28754;47.700;7.924;2024-01-16T00:25:26;90573.47;;;-2.41
43292;BMP280;28754;47.700;7.924;2024-01-16T00:28:13;90581.53;;;-2.33
43292;BMP280;28754;47.700;7.924;2024-01-16T00:31:00;90583.56;;;-2.23
43292;BMP280;28754;47.700;7.924;2024-01-16T00:33:46;90583.16;;;-2.20
43292;BMP280;28754;47.700;7.924;2024-01-16T00:36:33;90589.31;;;-2.16
43292;BMP280;28754;47.700;7.924;2024-01-16T00:39:19;90592.97;;;-2.12
43292;BMP280;28754;47.700;7.924;2024-01-16T00:42:06;90589.28;;;-2.10
43292;BMP280;28754;47.700;7.924;2024-01-16T00:44:53;90585.44;;;-2.12
43292;BMP280;28754;47.700;7.924;2024-01-16T00:47:39;90582.72;;;-2.11
43292;BMP280;28754;47.700;7.924;2024-01-16T00:50:27;90581.56;;;-2.08
43292;BMP280;28754;47.700;7.924;2024-01-16T00:53:16;90587.34;;;-2.08
43292;BMP280;28754;47.700;7.924;2024-01-16T00:56:03;90583.50;;;-2.10
43292;BMP280;28754;47.700;7.924;2024-01-16T00:58:50;90583.50;;;-2.10
43292;BMP280;28754;47.700;7.924;2024-01-16T01:01:38;90580.41;;;-2.12
43292;BMP280;28754;47.700;7.924;2024-01-16T01:04:24;90578.31;;;-2.15
43292;BMP280;28754;47.700;7.924;2024-01-16T01:07:14;90583.34;;;-2.15
43292;BMP280;28754;47.700;7.924;2024-01-16T01:10:02;90574.28;;;-2.16
43292;BMP280;28754;47.700;7.924;2024-01-16T01:12:49;90584.28;;;-2.16
43292;BMP280;28754;47.700;7.924;2024-01-16T01:15:37;90587.22;;;-2.19
43292;BMP280;28754;47.700;7.924;2024-01-16T01:18:23;90595.69;;;-2.20
43292;BMP280;28754;47.700;7.924;2024-01-16T01:21:10;90598.56;;;-2.17
43292;BMP280;28754;47.700;7.924;2024-01-16T01:23:57;90602.44;;;-2.21
43292;BMP280;28754;47.700;7.924;2024-01-16T01:26:44;90609.03;;;-2.20
43292;BMP280;28754;47.700;7.924;2024-01-16T01:29:30;90611.31;;;-2.18
43292;BMP280;28754;47.700;7.924;2024-01-16T01:32:17;90609.78;;;-2.19
43292;BMP280;28754;47.700;7.924;2024-01-16T01:35:05;90609.19;;;-2.15
43292;BMP280;28754;47.700;7.924;2024-01-16T01:37:52;90618.78;;;-2.12
43292;BMP280;28754;47.700;7.924;2024-01-16T01:40:38;90616.47;;;-2.07
43292;BMP280;28754;47.700;7.924;2024-01-16T01:43:25;90603.56;;;-2.10
43292;BMP280;28754;47.700;7.924;2024-01-16T01:46:19;90596.03;;;-2.10
43292;BMP280;28754;47.700;7.924;2024-01-16T01:49:06;90599.91;;;-2.14
43292;BMP280;28754;47.700;7.924;2024-01-16T01:51:54;90601.47;;;-2.13
43292;BMP280;28754;47.700;7.924;2024-01-16T01:54:41;90597.81;;;-2.17
43292;BMP280;28754;47.700;7.924;2024-01-16T01:57:28;90606.28;;;-2.18
43292;BMP280;28754;47.700;7.924;2024-01-16T02:00:15;90605.19;;;-2.22
43292;BMP280;28754;47.700;7.924;2024-01-16T02:03:05;90614.53;;;-2.42
43292;BMP280;28754;47.700;7.924;2024-01-16T02:05:52;90617.53;;;-2.64
43292;BMP280;28754;47.700;7.924;2024-01-16T02:08:39;90610.63;;;-2.75
43292;BMP280;28754;47.700;7.924;2024-01-16T02:11:26;90619.66;;;-2.68
43292;BMP280;28754;47.700;7.924;2024-01-16T02:14:13;90612.69;;;-2.59
43292;BMP280;28754;47.700;7.924;2024-01-16T02:17:00;90610.13;;;-2.46
43292;BMP280;28754;47.700;7.924;2024-01-16T02:19:47;90606.63;;;-2.39
43292;BMP280;28754;47.700;7.924;2024-01-16T02:22:35;90607.34;;;-2.32
43292;BMP280;28754;47.700;7.924;2024-01-16T02:25:22;90600.22;;;-2.29
43292;BMP280;28754;47.700;7.924;2024-01-16T02:28:09;90597.09;;;-2.24
43292;BMP280;28754;47.700;7.924;2024-01-16T02:30:56;90593.03;;;-2.25
43292;BMP280;28754;47.700;7.924;2024-01-16T02:33:43;90594.78;;;-2.26
43292;BMP280;28754;47.700;7.924;2024-01-16T02:36:30;90594.22;;;-2.28
43292;BMP280;28754;47.700;7.924;2024-01-16T02:39:18;90593.78;;;-2.25
43292;BMP280;28754;47.700;7.924;2024-01-16T02:42:05;90591.66;;;-2.21
43292;BMP280;28754;47.700;7.924;2024-01-16T02:44:51;90588.41;;;-2.22
43292;BMP280;28754;47.700;7.924;2024-01-16T02:47:38;90582.81;;;-2.24
43292;BMP280;28754;47.700;7.924;2024-01-16T02:50:25;90575.84;;;-2.22
43292;BMP280;28754;47.700;7.924;2024-01-16T02:53:11;90569.28;;;-2.23
43292;BMP280;28754;47.700;7.924;2024-01-16T02:55:58;90575.63;;;-2.20
43292;BMP280;28754;47.700;7.924;2024-01-16T02:58:45;90582.97;;;-2.19
43292;BMP280;28754;47.700;7.924;2024-01-16T03:01:31;90579.28;;;-2.16
43292;BMP280;28754;47.700;7.924;2024-01-16T03:04:18;90577.38;;;-2.21
43292;BMP280;28754;47.700;7.924;2024-01-16T03:07:05;90576.13;;;-2.36
43292;BMP280;28754;47.700;7.924;2024-01-16T03:09:52;90578.63;;;-2.36
43292;BMP280;28754;47.700;7.924;2024-01-16T03:12:38;90582.50;;;-2.40
43292;BMP280;28754;47.700;7.924;2024-01-16T03:15:25;90581.75;;;-2.40
43292;BMP280;28754;47.700;7.924;2024-01-16T03:18:12;90577.50;;;-2.40
43292;BMP280;28754;47.700;7.924;2024-01-16T03:20:59;90578.25;;;-2.40
43292;BMP280;28754;47.700;7.924;2024-01-16T03:23:46;90580.56;;;-2.38
43292;BMP280;28754;47.700;7.924;2024-01-16T03:26:32;90580.56;;;-2.38
43292;BMP280;28754;47.700;7.924;2024-01-16T03:29:19;90570.19;;;-2.41
43292;BMP280;28754;47.700;7.924;2024-01-16T03:32:06;90572.72;;;-2.41
43292;BMP280;28754;47.700;7.924;2024-01-16T03:34:52;90578.06;;;-2.38
43292;BMP280;28754;47.700;7.924;2024-01-16T03:37:39;90581.00;;;-2.41
43292;BMP280;28754;47.700;7.924;2024-01-16T03:40:26;90588.97;;;-2.57
43292;BMP280;28754;47.700;7.924;2024-01-16T03:43:12;90577.28;;;-2.69
43292;BMP280;28754;47.700;7.924;2024-01-16T03:45:59;90579.19;;;-2.65
43292;BMP280;28754;47.700;7.924;2024-01-16T03:48:46;90581.84;;;-2.60
43292;BMP280;28754;47.700;7.924;2024-01-16T03:51:33;90562.94;;;-2.56
43292;BMP280;28754;47.700;7.924;2024-01-16T03:54:19;90549.44;;;-2.55
43292;BMP280;28754;47.700;7.924;2024-01-16T03:57:06;90539.97;;;-2.53
43292;BMP280;28754;47.700;7.924;2024-01-16T03:59:52;90549.44;;;-2.55
43292;BMP280;28754;47.700;7.924;2024-01-16T04:02:39;90544.66;;;-2.56
43292;BMP280;28754;47.700;7.924;2024-01-16T04:05:26;90556.38;;;-2.57
43292;BMP280;28754;47.700;7.924;2024-01-16T04:08:12;90552.72;;;-2.54
43292;BMP280;28754;47.700;7.924;2024-01-16T04:10:59;90546.53;;;-2.52
43292;BMP280;28754;47.700;7.924;2024-01-16T04:13:46;90544.59;;;-2.50
43292;BMP280;28754;47.700;7.924;2024-01-16T04:16:33;90543.81;;;-2.50
43292;BMP280;28754;47.700;7.924;2024-01-16T04:19:19;90537.28;;;-2.51
43292;BMP280;28754;47.700;7.924;2024-01-16T04:22:06;90542.47;;;-2.53
43292;BMP280;28754;47.700;7.924;2024-01-16T04:24:53;90534.97;;;-2.53
43292;BMP280;28754;47.700;7.924;2024-01-16T04:27:39;90535.94;;;-2.54
43292;BMP280;28754;47.700;7.924;2024-01-16T04:30:26;90538.66;;;-2.55
43292;BMP280;28754;47.700;7.924;2024-01-16T04:33:13;90545.56;;;-2.51
43292;BMP280;28754;47.700;7.924;2024-01-16T04:35:59;90540.16;;;-2.48
43292;BMP280;28754;47.700;7.924;2024-01-16T04:38:46;90535.50;;;-2.44
43292;BMP280;28754;47.700;7.924;2024-01-16T04:41:33;90526.03;;;-2.42
43292;BMP280;28754;47.700;7.924;2024-01-16T04:44:19;90528.91;;;-2.39
43292;BMP280;28754;47.700;7.924;2024-01-16T04:47:06;90528.31;;;-2.35
43292;BMP280;28754;47.700;7.924;2024-01-16T04:49:53;90523.88;;;-2.33
43292;BMP280;28754;47.700;7.924;2024-01-16T04:52:39;90514.59;;;-2.32
43292;BMP280;28754;47.700;7.924;2024-01-16T04:55:27;90513.50;;;-2.42
43292;BMP280;28754;47.700;7.924;2024-01-16T04:58:14;90514.91;;;-2.53
43292;BMP280;28754;47.700;7.924;2024-01-16T05:01:00;90510.31;;;-2.56
43292;BMP280;28754;47.700;7.924;2024-01-16T05:03:47;90510.31;;;-2.56
43292;BMP280;28754;47.700;7.924;2024-01-16T05:06:34;90508.78;;;-2.57
43292;BMP280;28754;47.700;7.924;2024-01-16T05:09:22;90501.06;;;-2.55
43292;BMP280;28754;47.700;7.924;2024-01-16T05:12:09;90501.44;;;-2.52
43292;BMP280;28754;47.700;7.924;2024-01-16T05:14:56;90500.44;;;-2.51
43292;BMP280;28754;47.700;7.924;2024-01-16T05:17:43;90491.97;;;-2.50
43292;BMP280;28754;47.700;7.924;2024-01-16T05:20:29;90494.88;;;-2.53
43292;BMP280;28754;47.700;7.924;2024-01-16T05:23:16;90487.00;;;-2.56
43292;BMP280;28754;47.700;7.924;2024-01-16T05:26:04;90475.66;;;-2.59
43292;BMP280;28754;47.700;7.924;2024-01-16T05:28:51;90478.56;;;-2.62
43292;BMP280;28754;47.700;7.924;2024-01-16T05:31:41;90489.75;;;-2.64
43292;BMP280;28754;47.700;7.924;2024-01-16T05:34:28;90488.22;;;-2.65
43292;BMP280;28754;47.700;7.924;2024-01-16T05:37:15;90495.94;;;-2.67
43292;BMP280;28754;47.700;7.924;2024-01-16T05:40:03;90494.19;;;-2.66
43292;BMP280;28754;47.700;7.924;2024-01-16T05:42:49;90494.94;;;-2.66
43292;BMP280;28754;47.700;7.924;2024-01-16T05:45:36;90482.44;;;-2.66
43292;BMP280;28754;47.700;7.924;2024-01-16T05:48:23;90485.72;;;-2.65
43292;BMP280;28754;47.700;7.924;2024-01-16T05:51:10;90474.16;;;-2.66
43292;BMP280;28754;47.700;7.924;2024-01-16T05:53:57;90476.84;;;-2.68
43292;BMP280;28754;47.700;7.924;2024-01-16T05:56:43;90475.31;;;-2.69
43292;BMP280;28754;47.700;7.924;2024-01-16T05:59:30;90486.88;;;-2.68
43292;BMP280;28754;47.700;7.924;2024-01-16T06:02:17;90487.84;;;-2.69
43292;BMP280;28754;47.700;7.924;2024-01-16T06:05:04;90487.69;;;-2.73
43292;BMP280;28754;47.700;7.924;2024-01-16T06:07:51;90490.59;;;-2.76
43292;BMP280;28754;47.700;7.924;2024-01-16T06:10:38;90490.25;;;-2.80
43292;BMP280;28754;47.700;7.924;2024-01-16T06:13:25;90496.97;;;-2.80
43292;BMP280;28754;47.700;7.924;2024-01-16T06:16:11;90503.38;;;-2.84
43292;BMP280;28754;47.700;7.924;2024-01-16T06:18:58;90495.28;;;-2.86
43292;BMP280;28754;47.700;7.924;2024-01-16T06:21:45;90494.72;;;-2.88
43292;BMP280;28754;47.700;7.924;2024-01-16T06:24:31;90498.94;;;-2.89
43292;BMP280;28754;47.700;7.924;2024-01-16T06:27:23;90491.63;;;-2.90
43292;BMP280;28754;47.700;7.924;2024-01-16T06:30:10;90491.63;;;-2.90
43292;BMP280;28754;47.700;7.924;2024-01-16T06:32:57;90486.44;;;-2.95
43292;BMP280;28754;47.700;7.924;2024-01-16T06:35:44;90488.03;;;-3.01
43292;BMP280;28754;47.700;7.924;2024-01-16T06:38:31;90493.66;;;-3.11
43292;BMP280;28754;47.700;7.924;2024-01-16T06:41:18;90482.13;;;-3.19
43292;BMP280;28754;47.700;7.924;2024-01-16T06:44:04;90476.97;;;-3.24
43292;BMP280;28754;47.700;7.924;2024-01-16T06:46:51;90477.75;;;-3.30
43292;BMP280;28754;47.700;7.924;2024-01-16T06:49:38;90469.69;;;-3.38
43292;BMP280;28754;47.700;7.924;2024-01-16T06:52:24;90467.03;;;-3.43
43292;BMP280;28754;47.700;7.924;2024-01-16T06:55:11;90472.03;;;-3.43
43292;BMP280;28754;47.700;7.924;2024-01-16T06:57:58;90468.94;;;-3.39
43292;BMP280;28754;47.700;7.924;2024-01-16T07:00:44;90456.59;;;-3.34
43292;BMP280;28754;47.700;7.924;2024-01-16T07:03:32;90461.59;;;-3.34
43292;BMP280;28754;47.700;7.924;2024-01-16T07:06:19;90470.50;;;-3.38
43292;BMP280;28754;47.700;7.924;2024-01-16T07:09:06;90469.66;;;-3.32
43292;BMP280;28754;47.700;7.924;2024-01-16T07:11:53;90471.94;;;-3.24
43292;BMP280;28754;47.700;7.924;2024-01-16T07:14:39;90463.66;;;-3.18
43292;BMP280;28754;47.700;7.924;2024-01-16T07:17:26;90464.38;;;-3.11
43292;BMP280;28754;47.700;7.924;2024-01-16T07:20:13;90465.13;;;-3.04
43292;BMP280;28754;47.700;7.924;2024-01-16T07:22:59;90468.72;;;-2.94
43292;BMP280;28754;47.700;7.924;2024-01-16T07:25:46;90449.09;;;-2.42
43292;BMP280;28754;47.700;7.924;2024-01-16T07:28:33;90455.13;;;-1.77
43292;BMP280;28754;47.700;7.924;2024-01-16T07:31:19;90449.38;;;-1.13
43292;BMP280;28754;47.700;7.924;2024-01-16T07:34:06;90445.78;;;-0.47
43292;BMP280;28754;47.700;7.924;2024-01-16T07:36:53;90457.91;;;0.19
43292;BMP280;28754;47.700;7.924;2024-01-16T07:39:41;90459.59;;;0.86
43292;BMP280;28754;47.700;7.924;2024-01-16T07:42:28;90458.03;;;1.52
43292;BMP280;28754;47.700;7.924;2024-01-16T07:45:20;90456.28;;;2.12
43292;BMP280;28754;47.700;7.924;2024-01-16T07:48:07;90444.25;;;2.73
43292;BMP280;28754;47.700;7.924;2024-01-16T07:50:54;90453.47;;;3.21
43292;BMP280;28754;47.700;7.924;2024-01-16T07:53:41;90450.84;;;3.38
43292;BMP280;28754;47.700;7.924;2024-01-16T07:56:28;90454.34;;;3.79
43292;BMP280;28754;47.700;7.924;2024-01-16T07:59:14;90459.84;;;4.33
43292;BMP280;28754;47.700;7.924;2024-01-16T08:02:01;90448.81;;;4.13
43292;BMP280;28754;47.700;7.924;2024-01-16T08:04:48;90447.22;;;3.29
43292;BMP280;28754;47.700;7.924;2024-01-16T08:07:34;90455.13;;;2.52
43292;BMP280;28754;47.700;7.924;2024-01-16T08:10:21;90457.81;;;1.97
43292;BMP280;28754;47.700;7.924;2024-01-16T08:13:08;90445.97;;;1.54
43292;BMP280;28754;47.700;7.924;2024-01-16T08:15:54;90467.38;;;1.24
43292;BMP280;28754;47.700;7.924;2024-01-16T08:18:41;90458.47;;;1.05
43292;BMP280;28754;47.700;7.924;2024-01-16T08:21:28;90452.50;;;1.38
43292;BMP280;28754;47.700;7.924;2024-01-16T08:24:14;90443.00;;;2.54
43292;BMP280;28754;47.700;7.924;2024-01-16T08:27:01;90440.13;;;3.78
43292;BMP280;28754;47.700;7.924;2024-01-16T08:29:49;90428.75;;;4.83
43292;BMP280;28754;47.700;7.924;2024-01-16T08:32:36;90425.81;;;5.72
43292;BMP280;28754;47.700;7.924;2024-01-16T08:35:23;90425.09;;;6.45
43292;BMP280;28754;47.700;7.924;2024-01-16T08:38:09;90420.41;;;7.16
43292;BMP280;28754;47.700;7.924;2024-01-16T08:40:56;90413.47;;;7.84
43292;BMP280;28754;47.700;7.924;2024-01-16T08:43:43;90415.47;;;8.35
43292;BMP280;28754;47.700;7.924;2024-01-16T08:46:29;90428.69;;;8.75
43292;BMP280;28754;47.700;7.924;2024-01-16T08:49:16;90421.19;;;9.11
43292;BMP280;28754;47.700;7.924;2024-01-16T08:52:03;90423.84;;;9.48
43292;BMP280;28754;47.700;7.924;2024-01-16T08:54:51;90419.97;;;9.73
43292;BMP280;28754;47.700;7.924;2024-01-16T08:57:38;90425.34;;;9.72
43292;BMP280;28754;47.700;7.924;2024-01-16T09:00:25;90412.63;;;9.90
43292;BMP280;28754;47.700;7.924;2024-01-16T09:03:12;90421.59;;;10.24
43292;BMP280;28754;47.700;7.924;2024-01-16T09:05:59;90430.03;;;10.43
43292;BMP280;28754;47.700;7.924;2024-01-16T09:08:46;90424.00;;;10.84
43292;BMP280;28754;47.700;7.924;2024-01-16T09:11:33;90419.72;;;11.24
43292;BMP280;28754;47.700;7.924;2024-01-16T09:14:20;90409.63;;;11.46
43292;BMP280;28754;47.700;7.924;2024-01-16T09:17:07;90410.38;;;11.60
43292;BMP280;28754;47.700;7.924;2024-01-16T09:19:53;90401.63;;;11.87
43292;BMP280;28754;47.700;7.924;2024-01-16T09:22:40;90406.53;;;12.10
43292;BMP280;28754;47.700;7.924;2024-01-16T09:25:27;90409.91;;;12.33
43292;BMP280;28754;47.700;7.924;2024-01-16T09:28:16;90409.16;;;12.54
43292;BMP280;28754;47.700;7.924;2024-01-16T09:31:03;90405.53;;;12.76
43292;BMP280;28754;47.700;7.924;2024-01-16T09:33:50;90405.19;;;12.69
43292;BMP280;28754;47.700;7.924;2024-01-16T09:36:36;90404.25;;;12.66
43292;BMP280;28754;47.700;7.924;2024-01-16T09:39:23;90404.63;;;12.16
43292;BMP280;28754;47.700;7.924;2024-01-16T09:42:10;90418.34;;;11.85
43292;BMP280;28754;47.700;7.924;2024-01-16T09:45:00;90404.75;;;12.33
43292;BMP280;28754;47.700;7.924;2024-01-16T09:47:49;90406.72;;;12.70
43292;BMP280;28754;47.700;7.924;2024-01-16T09:50:36;90404.03;;;12.19
43292;BMP280;28754;47.700;7.924;2024-01-16T09:53:23;90407.69;;;10.48
43292;BMP280;28754;47.700;7.924;2024-01-16T09:56:15;90417.09;;;9.10
43292;BMP280;28754;47.700;7.924;2024-01-16T09:59:06;90421.06;;;9.44
43292;BMP280;28754;47.700;7.924;2024-01-16T10:01:55;90410.91;;;9.62
43292;BMP280;28754;47.700;7.924;2024-01-16T10:04:43;90421.47;;;9.56
43292;BMP280;28754;47.700;7.924;2024-01-16T10:07:31;90413.03;;;10.15
43292;BMP280;28754;47.700;7.924;2024-01-16T10:10:19;90403.28;;;10.35
43292;BMP280;28754;47.700;7.924;2024-01-16T10:13:07;90404.44;;;9.23
43292;BMP280;28754;47.700;7.924;2024-01-16T10:15:54;90406.88;;;7.83
43292;BMP280;28754;47.700;7.924;2024-01-16T10:18:42;90413.31;;;7.03
43292;BMP280;28754;47.700;7.924;2024-01-16T10:21:30;90420.53;;;6.57
43292;BMP280;28754;47.700;7.924;2024-01-16T10:24:18;90413.16;;;6.06
43292;BMP280;28754;47.700;7.924;2024-01-16T10:27:05;90417.97;;;5.73
43292;BMP280;28754;47.700;7.924;2024-01-16T10:29:57;90428.25;;;5.47
43292;BMP280;28754;47.700;7.924;2024-01-16T10:32:44;90429.50;;;5.35
43292;BMP280;28754;47.700;7.924;2024-01-16T10:35:31;90424.31;;;5.10
43292;BMP280;28754;47.700;7.924;2024-01-16T10:38:21;90409.25;;;4.89
43292;BMP280;28754;47.700;7.924;2024-01-16T10:41:14;90419.00;;;4.66
43292;BMP280;28754;47.700;7.924;2024-01-16T10:44:06;90413.31;;;4.49
43292;BMP280;28754;47.700;7.924;2024-01-16T10:47:11;90412.84;;;4.52
43292;BMP280;28754;47.700;7.924;2024-01-16T10:49:58;90406.59;;;4.64
43292;BMP280;28754;47.700;7.924;2024-01-16T10:52:48;90399.09;;;4.89
43292;BMP280;28754;47.700;7.924;2024-01-16T10:55:49;90389.75;;;5.75
43292;BMP280;28754;47.700;7.924;2024-01-16T10:58:42;90392.81;;;6.46
43292;BMP280;28754;47.700;7.924;2024-01-16T11:01:30;90379.41;;;7.18
43292;BMP280;28754;47.700;7.924;2024-01-16T11:04:20;90370.03;;;8.04
43292;BMP280;28754;47.700;7.924;2024-01-16T11:07:06;90367.97;;;8.11
43292;BMP280;28754;47.700;7.924;2024-01-16T11:09:54;90367.13;;;7.82
43292;BMP280;28754;47.700;7.924;2024-01-16T11:12:42;90362.56;;;7.31
43292;BMP280;28754;47.700;7.924;2024-01-16T11:15:31;90359.91;;;6.88
43292;BMP280;28754;47.700;7.924;2024-01-16T11:18:19;90367.06;;;6.82
43292;BMP280;28754;47.700;7.924;2024-01-16T11:21:16;90361.19;;;7.53
43292;BMP280;28754;47.700;7.924;2024-01-16T11:24:03;90365.09;;;9.01
43292;BMP280;28754;47.700;7.924;2024-01-16T11:26:49;90346.56;;;10.92
43292;BMP280;28754;47.700;7.924;2024-01-16T11:29:36;90342.25;;;11.80
43292;BMP280;28754;47.700;7.924;2024-01-16T11:32:41;90338.38;;;12.39
43292;BMP280;28754;47.700;7.924;2024-01-16T11:35:38;90336.56;;;13.13
43292;BMP280;28754;47.700;7.924;2024-01-16T11:38:26;90339.16;;;12.70
43292;BMP280;28754;47.700;7.924;2024-01-16T11:41:58;90338.69;;;13.11
43292;BMP280;28754;47.700;7.924;2024-01-16T11:44:49;90330.63;;;14.23
43292;BMP280;28754;47.700;7.924;2024-01-16T11:47:42;90310.84;;;15.48
43292;BMP280;28754;47.700;7.924;2024-01-16T11:50:29;90315.69;;;16.67
43292;BMP280;28754;47.700;7.924;2024-01-16T11:53:37;90303.34;;;16.52
43292;BMP280;28754;47.700;7.924;2024-01-16T11:59:57;90293.31;;;15.90
43292;BMP280;28754;47.700;7.924;2024-01-16T12:02:56;90296.31;;;15.72
43292;BMP280;28754;47.700;7.924;2024-01-16T12:05:42;90298.47;;;14.71
43292;BMP280;28754;47.700;7.924;2024-01-16T12:08:30;90307.41;;;13.65
43292;BMP280;28754;47.700;7.924;2024-01-16T12:11:19;90295.75;;;12.82
43292;BMP280;28754;47.700;7.924;2024-01-16T12:14:06;90296.25;;;12.19
43292;BMP280;28754;47.700;7.924;2024-01-16T12:16:52;90290.16;;;12.06
43292;BMP280;28754;47.700;7.924;2024-01-16T12:19:39;90297.50;;;12.73
43292;BMP280;28754;47.700;7.924;2024-01-16T12:22:30;90284.91;;;14.12
43292;BMP280;28754;47.700;7.924;2024-01-16T12:25:20;90279.50;;;15.66
43292;BMP280;28754;47.700;7.924;2024-01-16T12:28:08;90269.38;;;16.62
43292;BMP280;28754;47.700;7.924;2024-01-16T12:30:57;90264.41;;;17.01
43292;BMP280;28754;47.700;7.924;2024-01-16T12:33:44;90269.00;;;16.84
43292;BMP280;28754;47.700;7.924;2024-01-16T12:36:31;90267.09;;;16.61
43292;BMP280;28754;47.700;7.924;2024-01-16T12:39:19;90276.47;;;16.33
43292;BMP280;28754;47.700;7.924;2024-01-16T12:42:06;90271.97;;;15.81
43292;BMP280;28754;47.700;7.924;2024-01-16T12:44:52;90263.88;;;15.34
43292;BMP280;28754;47.700;7.924;2024-01-16T12:47:39;90270.84;;;15.42
43292;BMP280;28754;47.700;7.924;2024-01-16T12:50:27;90259.19;;;16.05
43292;BMP280;28754;47.700;7.924;2024-01-16T12:53:16;90254.47;;;16.07
43292;BMP280;28754;47.700;7.924;2024-01-16T12:56:05;90259.06;;;15.24
43292;BMP280;28754;47.700;7.924;2024-01-16T12:58:54;90248.94;;;15.19
43292;BMP280;28754;47.700;7.924;2024-01-16T13:01:45;90248.69;;;15.70
43292;BMP280;28754;47.700;7.924;2024-01-16T13:04:32;90245.72;;;16.00
43292;BMP280;28754;47.700;7.924;2024-01-16T13:07:19;90231.31;;;15.79
43292;BMP280;28754;47.700;7.924;2024-01-16T13:10:13;90235.47;;;15.91
43292;BMP280;28754;47.700;7.924;2024-01-16T13:13:16;90229.03;;;15.77
43292;BMP280;28754;47.700;7.924;2024-01-16T13:16:05;90218.88;;;15.52
43292;BMP280;28754;47.700;7.924;2024-01-16T13:19:01;90219.69;;;15.44
43292;BMP280;28754;47.700;7.924;2024-01-16T13:21:49;90224.50;;;15.25
43292;BMP280;28754;47.700;7.924;2024-01-16T13:24:36;90212.44;;;15.01
43292;BMP280;28754;47.700;7.924;2024-01-16T13:27:22;90225.75;;;14.74
43292;BMP280;28754;47.700;7.924;2024-01-16T13:30:10;90226.41;;;14.54
43292;BMP280;28754;47.700;7.924;2024-01-16T13:32:57;90220.81;;;14.44
43292;BMP280;28754;47.700;7.924;2024-01-16T13:35:45;90228.69;;;14.39
43292;BMP280;28754;47.700;7.924;2024-01-16T13:38:35;90222.47;;;14.48
43292;BMP280;28754;47.700;7.924;2024-01-16T13:41:22;90215.53;;;14.41
43292;BMP280;28754;47.700;7.924;2024-01-16T13:44:08;90212.22;;;13.48
43292;BMP280;28754;47.700;7.924;2024-01-16T13:46:55;90226.03;;;12.36
43292;BMP280;28754;47.700;7.924;2024-01-16T13:49:42;90226.03;;;11.36
43292;BMP280;28754;47.700;7.924;2024-01-16T13:52:28;90222.97;;;10.46
43292;BMP280;28754;47.700;7.924;2024-01-16T13:55:16;90219.94;;;9.81
43292;BMP280;28754;47.700;7.924;2024-01-16T13:58:03;90221.25;;;9.47
43292;BMP280;28754;47.700;7.924;2024-01-16T14:00:50;90217.44;;;9.08
43292;BMP280;28754;47.700;7.924;2024-01-16T14:03:37;90225.03;;;8.54
43292;BMP280;28754;47.700;7.924;2024-01-16T14:06:24;90220.63;;;8.08
43292;BMP280;28754;47.700;7.924;2024-01-16T14:09:11;90226.38;;;7.62
43292;BMP280;28754;47.700;7.924;2024-01-16T14:12:00;90220.66;;;7.09
43292;BMP280;28754;47.700;7.924;2024-01-16T14:14:47;90221.34;;;6.71
43292;BMP280;28754;47.700;7.924;2024-01-16T14:17:34;90217.59;;;6.54
43292;BMP280;28754;47.700;7.924;2024-01-16T14:20:22;90219.16;;;6.50
43292;BMP280;28754;47.700;7.924;2024-01-16T14:23:10;90225.00;;;6.55
43292;BMP280;28754;47.700;7.924;2024-01-16T14:25:57;90226.22;;;6.63
43292;BMP280;28754;47.700;7.924;2024-01-16T14:28:43;90215.56;;;6.61
43292;BMP280;28754;47.700;7.924;2024-01-16T14:31:30;90215.06;;;6.59
43292;BMP280;28754;47.700;7.924;2024-01-16T14:34:17;90211.03;;;6.53
43292;BMP280;28754;47.700;7.924;2024-01-16T14:37:06;90209.00;;;6.45
43292;BMP280;28754;47.700;7.924;2024-01-16T14:39:53;90209.00;;;6.45
43292;BMP280;28754;47.700;7.924;2024-01-16T14:42:40;90213.34;;;6.45
43292;BMP280;28754;47.700;7.924;2024-01-16T14:45:26;90217.66;;;6.44
43292;BMP280;28754;47.700;7.924;2024-01-16T14:48:15;90222.50;;;6.41
43292;BMP280;28754;47.700;7.924;2024-01-16T14:51:02;90223.78;;;6.38
43292;BMP280;28754;47.700;7.924;2024-01-16T14:53:49;90230.41;;;6.34
43292;BMP280;28754;47.700;7.924;2024-01-16T14:56:35;90225.34;;;6.29
43292;BMP280;28754;47.700;7.924;2024-01-16T14:59:22;90218.78;;;6.18
43292;BMP280;28754;47.700;7.924;2024-01-16T15:02:09;90223.88;;;6.04
43292;BMP280;28754;47.700;7.924;2024-01-16T15:05:02;90215.78;;;5.87
43292;BMP280;28754;47.700;7.924;2024-01-16T15:07:50;90209.72;;;5.73
43292;BMP280;28754;47.700;7.924;2024-01-16T15:10:40;90226.72;;;5.53
43292;BMP280;28754;47.700;7.924;2024-01-16T15:13:27;90220.13;;;5.37
43292;BMP280;28754;47.700;7.924;2024-01-16T15:16:13;90222.63;;;5.32
43292;BMP280;28754;47.700;7.924;2024-01-16T15:19:02;90220.09;;;5.32
43292;BMP280;28754;47.700;7.924;2024-01-16T15:21:49;90222.41;;;5.34
43292;BMP280;28754;47.700;7.924;2024-01-16T15:24:35;90232.03;;;5.37
43292;BMP280;28754;47.700;7.924;2024-01-16T15:27:22;90220.38;;;5.36
43292;BMP280;28754;47.700;7.924;2024-01-16T15:30:09;90231.78;;;5.38
43292;BMP280;28754;47.700;7.924;2024-01-16T15:32:57;90233.06;;;5.36
43292;BMP280;28754;47.700;7.924;2024-01-16T15:35:43;90234.81;;;5.30
43292;BMP280;28754;47.700;7.924;2024-01-16T15:38:30;90230.50;;;5.21
43292;BMP280;28754;47.700;7.924;2024-01-16T15:41:17;90234.06;;;5.10
43292;BMP280;28754;47.700;7.924;2024-01-16T15:44:04;90238.59;;;5.08
43292;BMP280;28754;47.700;7.924;2024-01-16T15:46:59;90254.81;;;4.97
43292;BMP280;28754;47.700;7.924;2024-01-16T15:49:46;90249.47;;;4.84
43292;BMP280;28754;47.700;7.924;2024-01-16T15:52:34;90245.69;;;4.81
43292;BMP280;28754;47.700;7.924;2024-01-16T15:55:21;90246.44;;;4.77
43292;BMP280;28754;47.700;7.924;2024-01-16T15:58:07;90245.13;;;4.75
43292;BMP280;28754;47.700;7.924;2024-01-16T16:00:54;90254.25;;;4.71
43292;BMP280;28754;47.700;7.924;2024-01-16T16:03:41;90243.34;;;4.65
43292;BMP280;28754;47.700;7.924;2024-01-16T16:06:27;90241.31;;;4.62
43292;BMP280;28754;47.700;7.924;2024-01-16T16:09:14;90250.88;;;4.50
43292;BMP280;28754;47.700;7.924;2024-01-16T16:12:02;90272.38;;;4.38
43292;BMP280;28754;47.700;7.924;2024-01-16T16:14:48;90274.81;;;4.23